Time;durP1;ratioP1;P1;durP2;ratioP2;P2;SDS_P1;SDS_P2;PMS_P1;PMS_P2;Temp;Humidity;BMP_temperature;BMP_pressure;BME280_temperature;BME280_humidity;BME280_pressure;Samples;Min_cycle;Max_cycle;Signal;HPM_P1;HPM_P2
2022/02/06 00:00:19;;;;;;;12.65;2.08;;;8.10;99.90;;;;;;5025553;28;20022;-33
2022/02/06 00:02:46;;;;;;;10.85;2.28;;;8.20;99.90;;;;;;5023069;28;20060;-49
2022/02/06 00:05:13;;;;;;;10.23;2.15;;;8.20;99.90;;;;;;5027588;28;20025;-43
2022/02/06 00:07:39;;;;;;;29.10;2.50;;;8.20;99.90;;;;;;5023082;28;20080;-41
2022/02/06 00:10:05;;;;;;;12.75;2.65;;;8.20;99.90;;;;;;5033944;28;20036;-39
2022/02/06 00:12:32;;;;;;;21.10;2.42;;;8.20;99.90;;;;;;5032171;28;20049;-38
2022/02/06 00:14:58;;;;;;;19.17;3.08;;;8.20;99.90;;;;;;5030323;28;20494;-40
2022/02/06 00:17:28;;;;;;;14.85;2.03;;;8.20;99.90;;;;;;5029130;28;20066;-41
2022/02/06 00:19:53;;;;;;;15.52;2.95;;;8.20;99.90;;;;;;5020517;28;20060;-39
2022/02/06 00:22:29;;;;;;;24.30;2.65;;;8.20;99.90;;;;;;5017537;28;20505;-41
2022/02/06 00:27:45;;;;;;;11.55;2.25;;;8.20;99.90;;;;;;5033815;28;20041;-41
2022/02/06 00:32:45;;;;;;;17.27;2.33;;;8.20;99.90;;;;;;5031221;28;20548;-39
2022/02/06 00:41:29;;;;;;;14.38;2.10;;;8.30;99.90;;;;;;5034524;28;20048;-43
2022/02/06 00:43:26;;;;;;;13.77;2.50;;;8.30;99.90;;;;;;5023653;28;20045;-44
2022/02/06 00:45:53;;;;;;;27.27;3.28;;;8.30;99.90;;;;;;5017472;28;20026;-39
2022/02/06 00:48:23;;;;;;;15.68;2.53;;;8.30;99.90;;;;;;5025120;28;20108;-39
2022/02/06 00:50:58;;;;;;;10.82;2.28;;;8.30;99.90;;;;;;5020882;28;20036;-41
2022/02/06 00:53:23;;;;;;;28.52;3.03;;;8.40;99.90;;;;;;5023307;28;20458;-38
2022/02/06 00:55:49;;;;;;;19.63;2.60;;;8.40;99.90;;;;;;5023824;28;20080;-39
2022/02/06 00:58:14;;;;;;;18.60;3.03;;;8.40;99.90;;;;;;5021271;28;20030;-38
2022/02/06 01:00:40;;;;;;;11.93;3.40;;;8.30;99.90;;;;;;5028783;28;20176;-39
2022/02/06 01:03:06;;;;;;;9.57;2.05;;;8.40;99.90;;;;;;5030962;28;20021;-39
2022/02/06 01:05:32;;;;;;;19.48;3.17;;;8.40;99.90;;;;;;5032057;28;20079;-37
2022/02/06 01:07:58;;;;;;;23.77;3.22;;;8.40;99.90;;;;;;5024825;28;20072;-37
2022/02/06 01:10:24;;;;;;;28.58;3.70;;;8.40;99.90;;;;;;5023018;28;20024;-50
2022/02/06 01:12:59;;;;;;;11.63;2.72;;;8.40;99.90;;;;;;5030302;28;20409;-40
2022/02/06 01:15:33;;;;;;;12.98;2.42;;;8.40;99.90;;;;;;5033676;28;20029;-52
2022/02/06 01:18:04;;;;;;;24.15;3.75;;;8.50;99.90;;;;;;5021571;28;20041;-66
2022/02/06 01:20:35;;;;;;;16.25;2.47;;;8.50;99.90;;;;;;5013764;28;20058;-47
2022/02/06 01:23:07;;;;;;;23.45;3.38;;;8.50;99.90;;;;;;5013801;28;20092;-39
2022/02/06 01:25:43;;;;;;;22.20;3.35;;;8.60;99.90;;;;;;5015929;28;20100;-46
2022/02/06 01:28:14;;;;;;;16.23;2.08;;;8.60;99.90;;;;;;5016027;28;20025;-58
2022/02/06 01:30:49;;;;;;;22.48;3.45;;;8.60;99.90;;;;;;5023735;28;20033;-40
2022/02/06 01:33:20;;;;;;;27.80;3.30;;;8.60;99.90;;;;;;5033161;28;20486;-50
2022/02/06 01:35:53;;;;;;;22.88;2.40;;;8.60;99.90;;;;;;5031393;28;20558;-57
2022/02/06 01:38:36;;;;;;;30.08;3.88;;;8.60;99.90;;;;;;5033420;28;20030;-65
2022/02/06 01:41:15;;;;;;;18.50;2.67;;;8.60;99.90;;;;;;5032532;28;20038;-39
2022/02/06 01:43:50;;;;;;;17.38;2.90;;;8.60;99.90;;;;;;5033371;28;20071;-39
2022/02/06 01:46:32;;;;;;;15.35;2.35;;;8.60;99.90;;;;;;5033209;28;20026;-40
2022/02/06 01:57:29;;;;;;;13.50;2.53;;;8.60;99.90;;;;;;5013485;28;20465;-40
2022/02/06 02:23:43;;;;;;;22.35;3.42;;;8.80;99.90;;;;;;5032709;28;20089;-39
2022/02/06 02:47:15;;;;;;;28.85;2.95;;;8.80;99.90;;;;;;5024764;28;20092;-39
2022/02/06 02:49:49;;;;;;;17.10;3.17;;;8.80;99.90;;;;;;5016622;28;20453;-39
2022/02/06 02:52:25;;;;;;;25.15;4.30;;;8.80;99.90;;;;;;5026143;28;20021;-40
2022/02/06 02:54:59;;;;;;;18.08;2.65;;;8.80;99.90;;;;;;5036210;28;20432;-44
2022/02/06 02:57:33;;;;;;;16.48;2.47;;;8.80;99.90;;;;;;5032149;28;20026;-39
2022/02/06 03:00:18;;;;;;;19.20;3.10;;;8.90;99.90;;;;;;5016672;28;20060;-38
2022/02/06 03:02:44;;;;;;;15.05;2.47;;;8.80;99.90;;;;;;5015587;28;20438;-44
2022/02/06 03:05:10;;;;;;;21.60;3.17;;;8.80;99.90;;;;;;5016439;28;20022;-39
2022/02/06 03:07:35;;;;;;;29.95;3.38;;;8.80;99.90;;;;;;5019910;28;20393;-41
2022/02/06 03:10:02;;;;;;;22.17;3.60;;;8.70;99.90;;;;;;5033590;28;20105;-41
2022/02/06 03:12:30;;;;;;;10.93;1.60;;;8.70;99.90;;;;;;5035826;28;20103;-63
2022/02/06 03:15:05;;;;;;;23.98;2.88;;;8.80;99.90;;;;;;5034753;28;20037;-37
2022/02/06 03:17:44;;;;;;;22.92;2.47;;;8.80;99.90;;;;;;5035225;28;20460;-72
2022/02/06 03:20:17;;;;;;;31.60;2.95;;;8.80;99.90;;;;;;5035700;28;20026;-39
2022/02/06 03:22:54;;;;;;;22.60;2.58;;;8.80;99.90;;;;;;5024098;28;20478;-39
2022/02/06 03:25:22;;;;;;;26.13;3.58;;;8.80;99.90;;;;;;5016262;28;20035;-39
2022/02/06 03:27:49;;;;;;;30.05;4.30;;;8.80;99.90;;;;;;5017499;28;20115;-40
2022/02/06 03:30:15;;;;;;;17.95;3.58;;;8.80;99.90;;;;;;5016016;28;20032;-68
2022/02/06 03:32:41;;;;;;;23.08;2.30;;;8.70;99.90;;;;;;5015877;28;20522;-41
2022/02/06 03:35:08;;;;;;;22.60;2.88;;;8.70;99.90;;;;;;5015854;28;20509;-41
2022/02/06 03:37:34;;;;;;;18.05;2.50;;;8.70;99.90;;;;;;5025477;28;20055;-39
2022/02/06 03:40:04;;;;;;;17.02;2.47;;;8.80;99.90;;;;;;5015667;28;20101;-40
2022/02/06 03:42:35;;;;;;;16.58;2.97;;;8.80;99.90;;;;;;5016073;28;20025;-39
2022/02/06 03:45:06;;;;;;;18.95;2.95;;;8.80;99.90;;;;;;5014050;28;20546;-43
2022/02/06 03:47:48;;;;;;;28.15;4.43;;;8.80;99.90;;;;;;5015771;28;20391;-39
2022/02/06 03:50:16;;;;;;;21.13;2.88;;;8.80;99.90;;;;;;5015700;28;20022;-40
2022/02/06 03:52:46;;;;;;;32.17;3.75;;;8.80;99.90;;;;;;5020993;28;20104;-39
2022/02/06 03:55:18;;;;;;;19.55;2.92;;;8.80;99.90;;;;;;5033160;28;20385;-37
2022/02/06 03:57:48;;;;;;;17.27;2.65;;;8.80;99.90;;;;;;5031777;28;20025;-40
2022/02/06 04:00:16;;;;;;;21.60;2.58;;;8.80;99.90;;;;;;5026782;28;20060;-40
2022/02/06 04:02:42;;;;;;;;;;;8.80;99.90;;;;;;5035378;28;20037;-37
2022/02/06 04:05:08;;;;;;;17.45;3.00;;;8.80;99.90;;;;;;5034496;28;19913;-42
2022/02/06 04:07:34;;;;;;;29.33;3.35;;;8.90;99.90;;;;;;5023752;28;20029;-37
2022/02/06 04:09:59;;;;;;;26.90;2.95;;;8.90;99.90;;;;;;5013801;28;20120;-43
2022/02/06 04:12:26;;;;;;;19.90;3.08;;;8.90;99.90;;;;;;5018291;28;20056;-39
2022/02/06 04:15:06;;;;;;;28.92;2.78;;;8.90;99.90;;;;;;5033011;28;20482;-40
2022/02/06 04:17:44;;;;;;;17.75;2.97;;;9.00;99.90;;;;;;5034290;28;20029;-38
2022/02/06 04:20:09;;;;;;;16.63;3.17;;;8.90;99.90;;;;;;5033047;28;20029;-40
2022/02/06 04:22:35;;;;;;;21.65;2.85;;;9.00;99.90;;;;;;5034757;28;20323;-39
2022/02/06 04:25:01;;;;;;;33.58;3.17;;;9.00;99.90;;;;;;5033599;28;20534;-42
2022/02/06 04:27:26;;;;;;;25.60;3.60;;;9.10;99.90;;;;;;5015536;28;20022;-39
2022/02/06 04:29:53;;;;;;;27.33;2.75;;;9.10;99.90;;;;;;5013537;28;20061;-40
2022/02/06 04:32:19;;;;;;;18.88;2.72;;;9.10;99.90;;;;;;5014959;28;20062;-40
2022/02/06 04:34:46;;;;;;;20.17;2.50;;;9.10;99.90;;;;;;5027045;28;20430;-39
2022/02/06 04:42:28;;;;;;;23.83;3.42;;;9.10;99.90;;;;;;5034531;28;20033;-39
2022/02/06 04:48:19;;;;;;;21.33;3.67;;;9.30;99.90;;;;;;5012160;28;20042;-39
2022/02/06 05:23:15;;;;;;;15.20;2.33;;;9.40;99.90;;;;;;5027057;28;20068;-39
2022/02/06 05:26:04;;;;;;;36.83;3.67;;;9.40;99.90;;;;;;5014030;28;20030;-40
2022/02/06 05:28:43;;;;;;;27.52;3.33;;;9.40;99.90;;;;;;5012609;28;20037;-40
2022/02/06 05:31:13;;;;;;;18.98;2.47;;;9.40;99.90;;;;;;5013535;28;20103;-38
2022/02/06 05:33:39;;;;;;;16.85;2.60;;;9.40;99.90;;;;;;5013929;28;20037;-41
2022/02/06 05:36:08;;;;;;;12.80;2.58;;;9.40;99.90;;;;;;5015607;28;20041;-39
2022/02/06 05:38:34;;;;;;;22.08;2.83;;;9.50;99.90;;;;;;5013545;28;20045;-40
2022/02/06 05:40:59;;;;;;;18.95;2.80;;;9.40;99.90;;;;;;5013465;28;20398;-38
2022/02/06 05:43:25;;;;;;;24.50;4.10;;;9.40;99.90;;;;;;5013396;28;20126;-39
2022/02/06 05:45:50;;;;;;;23.35;4.38;;;9.40;99.90;;;;;;5014235;28;20371;-40
2022/02/06 05:48:16;;;;;;;15.30;3.63;;;9.50;99.90;;;;;;5016385;28;20030;-40
2022/02/06 05:50:43;;;;;;;19.10;2.15;;;9.50;99.90;;;;;;5013326;28;20018;-40
2022/02/06 05:53:10;;;;;;;23.15;2.72;;;9.50;99.90;;;;;;5015297;28;20088;-40
2022/02/06 05:55:36;;;;;;;20.63;4.15;;;9.50;99.90;;;;;;5030445;28;20060;-39
2022/02/06 05:58:02;;;;;;;15.50;2.92;;;9.50;99.90;;;;;;5033136;28;20049;-39
2022/02/06 06:00:28;;;;;;;13.68;1.90;;;9.50;99.90;;;;;;5032843;28;20072;-48
2022/02/06 06:02:53;;;;;;;20.95;2.22;;;9.50;99.90;;;;;;5032292;28;20125;-40
2022/02/06 06:05:19;;;;;;;26.63;2.58;;;9.50;99.90;;;;;;5032831;28;20032;-39
2022/02/06 06:07:45;;;;;;;25.85;3.05;;;9.50;99.90;;;;;;5033136;28;20079;-44
2022/02/06 06:10:11;;;;;;;17.55;2.47;;;9.40;99.90;;;;;;5019640;28;20033;-39
2022/02/06 06:12:38;;;;;;;25.33;4.35;;;9.40;99.90;;;;;;5012918;28;20061;-38
2022/02/06 06:15:04;;;;;;;27.30;3.30;;;9.30;99.90;;;;;;5032919;28;20099;-39
2022/02/06 06:17:30;;;;;;;15.57;1.88;;;9.30;99.90;;;;;;5032421;28;20083;-38
2022/02/06 06:19:56;;;;;;;22.08;3.67;;;9.30;99.90;;;;;;5032695;28;20030;-39
2022/02/06 06:22:23;;;;;;;17.17;2.85;;;9.30;99.90;;;;;;5023695;28;20543;-43
2022/02/06 06:24:55;;;;;;;19.67;2.88;;;9.20;99.90;;;;;;5020155;28;20022;-39
2022/02/06 06:27:21;;;;;;;25.60;4.00;;;9.30;99.90;;;;;;5012872;28;20025;-40
2022/02/06 06:29:47;;;;;;;20.40;3.15;;;9.30;99.90;;;;;;5012822;28;20024;-38
2022/02/06 06:32:13;;;;;;;30.38;3.90;;;9.30;99.90;;;;;;5017363;28;20028;-40
2022/02/06 06:34:39;;;;;;;27.45;3.47;;;9.30;99.90;;;;;;5030954;28;20140;-41
2022/02/06 06:37:04;;;;;;;20.52;2.45;;;9.30;99.90;;;;;;5032707;28;20129;-39
2022/02/06 06:39:40;;;;;;;22.25;3.10;;;9.30;99.90;;;;;;5032541;28;20036;-39
2022/02/06 06:42:06;;;;;;;27.52;3.70;;;9.30;99.90;;;;;;5032478;28;20504;-38
2022/02/06 06:44:32;;;;;;;19.08;2.90;;;9.30;99.90;;;;;;5031553;28;20033;-40
2022/02/06 06:46:58;;;;;;;17.50;2.80;;;9.30;99.90;;;;;;5032716;28;20039;-42
2022/02/06 06:49:24;;;;;;;19.60;2.50;;;9.30;99.90;;;;;;5032711;28;20472;-41
2022/02/06 06:51:50;;;;;;;28.13;3.13;;;9.30;99.90;;;;;;5032714;28;20017;-39
2022/02/06 06:54:20;;;;;;;22.70;3.35;;;9.40;99.90;;;;;;5015211;28;20046;-38
2022/02/06 06:59:47;;;;;;;25.42;3.42;;;9.40;99.90;;;;;;5030326;28;20037;-40
2022/02/06 07:04:42;;;;;;;29.63;3.67;;;9.40;99.90;;;;;;5012963;28;20037;-40
2022/02/06 07:07:08;;;;;;;15.90;3.03;;;9.40;99.90;;;;;;5012870;28;20409;-41
2022/02/06 07:09:34;;;;;;;15.43;2.42;;;9.40;99.90;;;;;;5012819;28;20097;-39
2022/02/06 07:11:59;;;;;;;17.20;2.53;;;9.40;99.90;;;;;;5018876;28;20076;-40
2022/02/06 07:14:27;;;;;;;33.42;3.67;;;9.50;99.90;;;;;;5012591;28;20033;-40
2022/02/06 07:16:53;;;;;;;14.20;2.17;;;9.40;99.90;;;;;;5011163;28;20046;-41
2022/02/06 07:19:19;;;;;;;23.90;3.33;;;9.40;99.90;;;;;;5012429;28;20079;-48
2022/02/06 07:21:44;;;;;;;26.13;3.25;;;9.40;99.90;;;;;;5014343;28;20022;-40
2022/02/06 07:24:10;;;;;;;20.65;2.05;;;9.40;99.90;;;;;;5032182;28;20060;-38
2022/02/06 07:26:36;;;;;;;25.13;3.95;;;9.40;99.90;;;;;;5031817;28;20443;-42
2022/02/06 07:29:02;;;;;;;18.90;3.50;;;9.40;99.90;;;;;;5032294;28;20485;-40
2022/02/06 07:31:28;;;;;;;20.02;3.05;;;9.40;99.90;;;;;;5035558;28;20021;-38
2022/02/06 07:33:54;;;;;;;35.30;3.70;;;9.40;99.90;;;;;;5017240;28;20022;-39
2022/02/06 07:36:20;;;;;;;21.70;2.67;;;9.40;99.90;;;;;;5015795;28;20364;-41
2022/02/06 07:38:47;;;;;;;23.10;2.85;;;9.30;99.90;;;;;;5017006;28;20492;-39
2022/02/06 07:41:12;;;;;;;24.15;2.50;;;9.40;99.90;;;;;;5015984;28;20105;-39
2022/02/06 07:43:38;;;;;;;22.13;2.08;;;9.40;99.90;;;;;;5015499;28;20153;-39
2022/02/06 07:46:09;;;;;;;17.48;3.17;;;9.40;99.90;;;;;;5015562;28;20570;-39
2022/02/06 07:48:35;;;;;;;14.18;2.58;;;9.40;99.90;;;;;;5015877;28;20022;-42
2022/02/06 07:51:03;;;;;;;22.27;3.13;;;9.40;99.90;;;;;;5015767;28;20466;-37
2022/02/06 07:53:29;;;;;;;19.95;2.50;;;9.30;99.90;;;;;;5032583;28;20421;-41
2022/02/06 07:55:55;;;;;;;24.98;3.08;;;9.30;99.90;;;;;;5035174;28;20032;-40
2022/02/06 07:58:20;;;;;;;18.90;2.58;;;9.30;99.90;;;;;;5034421;28;20482;-41
2022/02/06 08:00:46;;;;;;;17.15;3.35;;;9.40;99.90;;;;;;5035196;28;20129;-41
2022/02/06 08:03:12;;;;;;;20.60;4.15;;;9.40;99.90;;;;;;5017634;28;20026;-41
2022/02/06 08:05:37;;;;;;;30.55;3.63;;;9.40;99.90;;;;;;5015269;28;20026;-40
2022/02/06 08:08:11;;;;;;;37.80;5.20;;;9.30;99.90;;;;;;5015197;28;20018;-39
2022/02/06 08:10:36;;;;;;;21.77;2.08;;;9.40;99.90;;;;;;5015092;28;20072;-39
2022/02/06 08:13:06;;;;;;;17.55;3.15;;;9.40;99.90;;;;;;5029472;28;20138;-38
2022/02/06 08:15:32;;;;;;;19.08;2.42;;;9.40;99.90;;;;;;5034914;28;20523;-40
2022/02/06 08:17:58;;;;;;;20.88;3.50;;;9.40;99.90;;;;;;5034801;28;20025;-41
2022/02/06 08:20:23;;;;;;;20.35;3.65;;;9.40;99.90;;;;;;5034703;28;20091;-39
2022/02/06 08:22:51;;;;;;;21.50;3.65;;;9.40;99.90;;;;;;5021050;28;20057;-39
2022/02/06 08:25:17;;;;;;;;;;;9.30;99.90;;;;;;5015354;28;20026;-39
2022/02/06 08:27:43;;;;;;;20.55;2.25;;;9.30;99.90;;;;;;5018707;28;19928;-40
2022/02/06 08:30:10;;;;;;;22.38;3.88;;;9.30;99.90;;;;;;5034498;28;20503;-39
2022/02/06 08:32:36;;;;;;;14.32;2.85;;;9.20;99.90;;;;;;5033913;28;20027;-39
2022/02/06 08:35:03;;;;;;;8.63;2.25;;;9.20;99.90;;;;;;5033127;28;20533;-40
2022/02/06 08:37:28;;;;;;;18.17;2.40;;;9.20;99.90;;;;;;5034387;28;20026;-39
2022/02/06 08:39:55;;;;;;;18.15;2.33;;;9.20;99.90;;;;;;5034545;28;20070;-40
2022/02/06 08:42:20;;;;;;;21.20;2.10;;;9.10;99.90;;;;;;5033109;28;20032;-39
2022/02/06 08:44:47;;;;;;;31.02;2.95;;;9.10;99.90;;;;;;5034228;28;20029;-39
2022/02/06 08:47:16;;;;;;;16.38;1.80;;;9.10;99.90;;;;;;5018115;28;20422;-39
2022/02/06 08:49:41;;;;;;;24.88;3.80;;;9.10;99.90;;;;;;5014376;28;20026;-39
2022/02/06 08:52:09;;;;;;;13.05;1.90;;;9.10;99.90;;;;;;5014551;28;20367;-40
2022/02/06 08:54:36;;;;;;;15.07;2.30;;;9.10;99.90;;;;;;5014457;28;20053;-38
2022/02/06 08:57:12;;;;;;;12.25;2.30;;;9.10;99.90;;;;;;5014559;28;20033;-39
2022/02/06 08:59:38;;;;;;;9.43;1.77;;;9.10;99.90;;;;;;5022016;28;20063;-39
2022/02/06 09:02:03;;;;;;;12.98;2.10;;;9.10;99.90;;;;;;5033570;28;20032;-39
2022/02/06 09:04:30;;;;;;;18.38;1.50;;;9.10;99.90;;;;;;5033842;28;20026;-39
2022/02/06 09:06:59;;;;;;;14.60;2.40;;;9.10;99.90;;;;;;5017148;28;20022;-39
2022/02/06 09:09:26;;;;;;;15.65;2.67;;;9.10;99.90;;;;;;5014308;28;20030;-39
2022/02/06 09:11:52;;;;;;;6.53;1.08;;;9.10;99.90;;;;;;5026036;28;20490;-39
2022/02/06 09:14:21;;;;;;;11.05;1.95;;;9.20;99.90;;;;;;5033999;28;20037;-40
2022/02/06 09:16:46;;;;;;;18.35;2.33;;;9.20;99.90;;;;;;5033888;28;20024;-39
2022/02/06 09:19:12;;;;;;;8.00;1.48;;;9.20;99.90;;;;;;5033623;28;20104;-40
2022/02/06 09:21:42;;;;;;;15.73;1.80;;;9.20;99.90;;;;;;5023540;28;20496;-39
2022/02/06 09:24:09;;;;;;;13.45;1.35;;;9.20;99.90;;;;;;5033682;28;20087;-37
2022/02/06 09:26:36;;;;;;;6.43;1.97;;;9.20;99.90;;;;;;5033141;28;20022;-49
2022/02/06 09:29:03;;;;;;;16.30;2.13;;;9.20;99.90;;;;;;5029473;28;20048;-39
2022/02/06 09:31:29;;;;;;;18.50;2.53;;;9.10;99.90;;;;;;5032507;28;20462;-44
2022/02/06 09:36:20;;;;;;;12.15;1.52;;;9.10;99.90;;;;;;5013913;28;20136;-38
2022/02/06 09:38:46;;;;;;;9.38;1.55;;;9.20;99.90;;;;;;5013623;28;20470;-38
2022/02/06 09:41:12;;;;;;;11.75;2.25;;;9.10;99.90;;;;;;5013586;28;20030;-39
2022/02/06 09:43:39;;;;;;;22.35;1.77;;;9.10;99.90;;;;;;5026617;28;20494;-37
2022/02/06 09:46:04;;;;;;;13.75;1.10;;;9.20;99.90;;;;;;5031601;28;20075;-39
2022/02/06 09:48:31;;;;;;;14.48;1.77;;;9.20;99.90;;;;;;5016344;28;20030;-38
2022/02/06 09:50:58;;;;;;;7.65;1.17;;;9.20;99.90;;;;;;5013402;28;20476;-39
2022/02/06 09:53:27;;;;;;;10.32;1.40;;;9.20;99.90;;;;;;5030279;28;20045;-37
2022/02/06 09:55:53;;;;;;;13.25;1.90;;;9.10;99.90;;;;;;5018492;28;20441;-39
2022/02/06 10:00:51;;;;;;;11.88;1.58;;;9.10;99.90;;;;;;5013616;28;20070;-37
2022/02/06 10:03:19;;;;;;;9.93;1.67;;;9.10;99.90;;;;;;5013129;28;20060;-39
2022/02/06 10:05:46;;;;;;;9.43;1.58;;;9.20;99.90;;;;;;5013445;28;20022;-36
2022/02/06 10:08:38;;;;;;;5.32;1.20;;;9.20;99.90;;;;;;5013714;28;20041;-47
2022/02/06 10:11:15;;;;;;;8.48;1.33;;;9.20;99.90;;;;;;5011890;28;20096;-38
2022/02/06 10:13:42;;;;;;;13.75;1.95;;;9.20;99.90;;;;;;5013060;28;20557;-37
2022/02/06 10:16:11;;;;;;;10.90;2.33;;;9.20;99.90;;;;;;5013024;28;20029;-40
2022/02/06 10:18:36;;;;;;;5.72;1.35;;;9.20;99.90;;;;;;5016506;28;20482;-45
2022/02/06 10:21:03;;;;;;;9.30;2.13;;;9.20;99.90;;;;;;5027961;28;20068;-40
2022/02/06 10:26:20;;;;;;;18.35;2.30;;;9.20;99.90;;;;;;5033031;28;20057;-39
2022/02/06 10:28:57;;;;;;;14.43;1.52;;;9.30;99.90;;;;;;5032658;28;20096;-38
2022/02/06 10:31:25;;;;;;;8.40;1.88;;;9.30;99.90;;;;;;5032911;28;20021;-38
2022/02/06 10:33:53;;;;;;;11.80;2.63;;;9.20;99.90;;;;;;5032986;28;20025;-36
2022/02/06 10:36:35;;;;;;;21.40;1.73;;;9.10;99.90;;;;;;5032641;28;20032;-38
2022/02/06 10:39:04;;;;;;;8.95;1.13;;;9.10;99.90;;;;;;5029792;28;20022;-38
2022/02/06 10:41:30;;;;;;;20.50;2.10;;;9.10;99.90;;;;;;5013377;28;20577;-39
2022/02/06 10:44:07;;;;;;;6.50;1.33;;;9.10;99.90;;;;;;5014542;28;20022;-37
2022/02/06 10:46:44;;;;;;;10.75;2.08;;;9.20;99.90;;;;;;5023186;28;20025;-38
2022/02/06 10:49:13;;;;;;;8.70;1.55;;;9.20;99.90;;;;;;5032516;28;20029;-38
2022/02/06 10:51:44;;;;;;;28.13;2.88;;;9.20;99.90;;;;;;5018406;28;20087;-42
2022/02/06 10:54:16;;;;;;;10.70;1.70;;;9.30;99.90;;;;;;5013004;28;20033;-37
2022/02/06 10:57:18;;;;;;;16.10;2.50;;;9.30;99.90;;;;;;5012628;28;20037;-35
2022/02/06 10:59:47;;;;;;;19.58;1.75;;;9.20;99.90;;;;;;5010912;28;20037;-38
2022/02/06 11:02:22;;;;;;;14.60;1.98;;;9.20;99.90;;;;;;5025418;28;20045;-38
2022/02/06 11:05:33;;;;;;;11.10;2.05;;;9.20;99.90;;;;;;5034978;28;20025;-38
2022/02/06 11:07:56;;;;;;;7.82;2.30;;;9.30;99.90;;;;;;5034311;28;20090;-46
2022/02/06 11:10:23;;;;;;;12.93;2.37;;;9.30;99.90;;;;;;5036014;28;20025;-38
2022/02/06 11:12:54;;;;;;;15.90;1.80;;;9.30;99.90;;;;;;5034307;28;20045;-39
2022/02/06 11:15:30;;;;;;;1.02;0.30;;;9.30;99.90;;;;;;5034524;28;20022;-53
2022/02/06 11:18:13;;;;;;;2.17;0.20;;;7.90;99.90;;;;;;5035909;28;20060;-38
2022/02/06 11:20:51;;;;;;;0.90;0.20;;;6.80;99.90;;;;;;5031571;28;20025;-38
2022/02/06 11:23:17;;;;;;;6.75;0.45;;;6.40;99.90;;;;;;5018326;28;20030;-38
2022/02/06 11:25:43;;;;;;;1.02;0.15;;;6.20;99.90;;;;;;5014680;28;20041;-42
2022/02/06 11:28:12;;;;;;;0.00;0.00;;;6.10;99.90;;;;;;5019327;28;20013;-37
2022/02/06 11:30:42;;;;;;;0.73;0.20;;;6.00;99.90;;;;;;5027253;28;20060;-38
2022/02/06 11:33:08;;;;;;;0.98;0.22;;;5.90;99.90;;;;;;5032865;28;20553;-36
2022/02/06 11:35:36;;;;;;;2.10;0.05;;;5.90;99.90;;;;;;5016358;28;20026;-39
2022/02/06 11:44:15;;;;;;;1.50;0.40;;;6.00;99.90;;;;;;5015663;28;20037;-39
2022/02/06 11:46:54;;;;;;;2.40;0.77;;;6.10;99.90;;;;;;5015580;28;20451;-37
2022/02/06 11:49:22;;;;;;;2.65;0.20;;;6.20;99.90;;;;;;5033461;28;20473;-38
2022/02/06 11:51:56;;;;;;;6.13;0.50;;;6.10;99.90;;;;;;5034058;28;20052;-37
2022/02/06 11:54:42;;;;;;;5.43;0.45;;;6.20;99.90;;;;;;5024338;28;20084;-38
2022/02/06 11:57:20;;;;;;;4.13;0.60;;;6.20;99.90;;;;;;5024570;28;20029;-38
2022/02/06 12:00:05;;;;;;;5.68;1.15;;;6.40;99.90;;;;;;5027301;28;20036;-39
2022/02/06 12:02:36;;;;;;;13.68;1.08;;;6.40;99.90;;;;;;5031203;28;20033;-37
2022/02/06 12:05:19;;;;;;;5.80;0.57;;;6.50;99.90;;;;;;5035369;28;20048;-37
2022/02/06 12:08:00;;;;;;;5.53;1.27;;;6.60;99.90;;;;;;5035203;28;20063;-37
2022/02/06 12:10:35;;;;;;;9.68;2.25;;;6.60;99.90;;;;;;5027708;28;20067;-37
2022/02/06 12:13:19;;;;;;;18.65;1.75;;;6.70;99.90;;;;;;5014875;28;20498;-45
2022/02/06 12:15:50;;;;;;;11.55;1.08;;;6.90;99.90;;;;;;5014609;28;20036;-45
2022/02/06 12:18:24;;;;;;;13.23;1.48;;;7.10;99.90;;;;;;5027313;28;20390;-38
2022/02/06 12:20:55;;;;;;;10.35;1.08;;;7.30;99.90;;;;;;5023671;28;20028;-41
2022/02/06 12:24:01;;;;;;;9.57;0.95;;;7.30;99.90;;;;;;5032172;28;20026;-38
2022/02/06 12:26:30;;;;;;;9.65;0.70;;;7.40;99.90;;;;;;5011792;28;20029;-59
2022/02/06 12:28:58;;;;;;;7.40;0.70;;;7.40;99.90;;;;;;5013277;28;20041;-40
2022/02/06 12:31:30;;;;;;;7.85;1.02;;;7.50;99.90;;;;;;5032129;28;20064;-37
2022/02/06 12:37:07;;;;;;;7.60;0.60;;;7.60;99.90;;;;;;5016428;28;20030;-38
2022/02/06 12:39:35;;;;;;;2.55;0.43;;;7.70;99.90;;;;;;5031228;28;20486;-39
2022/02/06 12:42:02;;;;;;;2.88;0.55;;;7.80;99.90;;;;;;5034324;28;20107;-37
2022/02/06 12:44:29;;;;;;;4.17;0.63;;;7.70;99.90;;;;;;5029771;28;20429;-39
2022/02/06 12:46:59;;;;;;;7.10;0.98;;;7.80;99.90;;;;;;5026849;28;20067;-44
2022/02/06 12:49:29;;;;;;;2.80;0.38;;;7.90;99.90;;;;;;5032210;28;20441;-38
2022/02/06 12:51:57;;;;;;;7.22;0.73;;;8.00;99.90;;;;;;5031929;28;20029;-38
2022/02/06 12:54:23;;;;;;;5.65;0.82;;;8.00;99.90;;;;;;5031971;28;20025;-37
2022/02/06 12:56:53;;;;;;;3.55;0.52;;;8.10;99.90;;;;;;5031107;28;20029;-38
2022/02/06 12:59:21;;;;;;;6.10;0.47;;;8.10;99.90;;;;;;5033889;28;20505;-39
2022/02/06 13:01:48;;;;;;;7.60;0.70;;;8.10;99.90;;;;;;5032608;28;20024;-37
2022/02/06 13:04:19;;;;;;;4.23;0.70;;;8.20;99.90;;;;;;5024930;28;20072;-39
2022/02/06 13:06:46;;;;;;;8.25;1.42;;;8.30;99.90;;;;;;5032789;28;20079;-37
2022/02/06 13:09:27;;;;;;;8.05;0.95;;;8.30;99.90;;;;;;5017635;28;20029;-45
2022/02/06 13:14:52;;;;;;;6.70;1.48;;;8.40;99.90;;;;;;5033917;28;20083;-39
2022/02/06 13:17:34;;;;;;;;;;;8.50;99.90;;;;;;5034230;28;20021;-38
2022/02/06 13:20:24;;;;;;;11.65;0.85;;;8.50;99.90;;;;;;5033535;28;19905;-38
2022/02/06 13:25:47;;;;;;;6.97;0.93;;;8.70;99.90;;;;;;5033730;28;20087;-39
2022/02/06 13:28:29;;;;;;;6.38;1.10;;;8.70;99.90;;;;;;5027742;28;20377;-47
2022/02/06 13:36:42;;;;;;;12.30;1.05;;;8.80;99.90;;;;;;5031974;28;20037;-39
2022/02/06 13:39:19;;;;;;;7.28;0.57;;;8.80;99.90;;;;;;5030618;28;20034;-45
2022/02/06 13:41:44;;;;;;;10.43;0.68;;;8.70;99.90;;;;;;5026330;28;20458;-39
2022/02/06 13:44:18;;;;;;;6.82;1.02;;;8.70;99.90;;;;;;5027053;28;20052;-38
2022/02/06 13:46:45;;;;;;;7.40;1.33;;;8.70;99.90;;;;;;5022418;28;20105;-39
2022/02/06 13:49:11;;;;;;;16.25;1.20;;;8.70;99.90;;;;;;5013372;28;20022;-38
2022/02/06 13:51:48;;;;;;;4.82;1.20;;;8.80;99.90;;;;;;5013230;28;20029;-39
2022/02/06 13:54:15;;;;;;;1.90;0.53;;;8.70;99.90;;;;;;5031393;28;20398;-39
2022/02/06 13:56:40;;;;;;;5.88;0.68;;;8.70;99.90;;;;;;5032855;28;20271;-39
2022/02/06 13:59:18;;;;;;;6.25;1.50;;;8.70;99.90;;;;;;5031714;28;20025;-34
2022/02/06 14:01:51;;;;;;;4.25;0.65;;;8.80;99.90;;;;;;5025651;28;20587;-39
2022/02/06 14:04:31;;;;;;;3.97;0.77;;;8.80;99.90;;;;;;5032932;28;20021;-39
2022/02/06 14:07:08;;;;;;;4.68;1.98;;;8.80;99.90;;;;;;5032447;28;20068;-40
2022/02/06 14:12:20;;;;;;;5.07;1.23;;;8.90;99.90;;;;;;5013026;28;20395;-39
2022/02/06 14:15:00;;;;;;;3.72;0.40;;;9.00;99.90;;;;;;5011623;28;20034;-41
2022/02/06 14:17:33;;;;;;;5.93;1.05;;;9.10;99.90;;;;;;5012353;28;20030;-39
2022/02/06 14:20:07;;;;;;;3.78;1.17;;;9.20;99.90;;;;;;5013310;28;20424;-40
2022/02/06 14:22:34;;;;;;;4.00;0.73;;;9.30;99.90;;;;;;5027256;28;20496;-39
2022/02/06 14:25:02;;;;;;;6.38;1.00;;;9.40;99.90;;;;;;5026479;28;20101;-41
2022/02/06 14:27:33;;;;;;;7.47;0.95;;;9.30;99.90;;;;;;5022011;28;20025;-40
2022/02/06 14:30:09;;;;;;;4.43;0.90;;;9.30;99.90;;;;;;5018814;28;20568;-46
2022/02/06 14:32:37;;;;;;;8.93;1.23;;;9.20;99.90;;;;;;5019400;28;20399;-37
2022/02/06 14:35:11;;;;;;;5.03;0.60;;;9.30;99.90;;;;;;5026950;28;20478;-40
2022/02/06 14:37:55;;;;;;;2.05;0.98;;;9.40;99.90;;;;;;5015312;28;20430;-41
2022/02/06 14:40:30;;;;;;;5.85;0.70;;;9.40;99.90;;;;;;5033683;28;20087;-40
2022/02/06 14:42:58;;;;;;;8.57;1.17;;;9.40;99.90;;;;;;5036465;28;20022;-40
2022/02/06 14:45:24;;;;;;;3.80;1.00;;;9.50;99.90;;;;;;5036593;28;20390;-60
2022/02/06 14:47:49;;;;;;;10.63;1.48;;;9.60;99.90;;;;;;5036380;28;20021;-43
2022/02/06 14:50:20;;;;;;;6.25;0.60;;;9.60;99.90;;;;;;5036333;28;20036;-40
2022/02/06 14:52:47;;;;;;;2.97;0.85;;;9.60;99.90;;;;;;5034170;28;20071;-40
2022/02/06 14:55:13;;;;;;;3.30;0.60;;;9.70;99.90;;;;;;5016345;28;20034;-40
2022/02/06 14:57:40;;;;;;;5.88;0.90;;;9.60;99.90;;;;;;5016682;28;20024;-40
2022/02/06 15:00:08;;;;;;;0.90;0.38;;;9.40;99.90;;;;;;5016367;28;20052;-38
2022/02/06 15:02:34;;;;;;;4.32;0.85;;;9.30;99.90;;;;;;5016318;28;20030;-37
2022/02/06 15:05:00;;;;;;;3.28;0.75;;;9.40;99.90;;;;;;5016316;28;20014;-39
2022/02/06 15:07:26;;;;;;;1.52;0.55;;;9.30;99.90;;;;;;5016341;28;20081;-38
2022/02/06 15:09:52;;;;;;;0.68;0.50;;;9.40;99.90;;;;;;5022455;28;20048;-37
2022/02/06 15:12:18;;;;;;;1.15;0.73;;;9.30;99.90;;;;;;5034908;28;20053;-48
2022/02/06 15:14:44;;;;;;;3.65;0.85;;;9.20;99.90;;;;;;5035402;28;20057;-39
2022/02/06 15:17:11;;;;;;;6.93;0.98;;;9.20;99.90;;;;;;5032537;28;20064;-43
2022/02/06 15:19:37;;;;;;;3.67;0.70;;;9.10;99.90;;;;;;5016332;28;20367;-39
2022/02/06 15:22:03;;;;;;;4.20;0.95;;;9.10;99.90;;;;;;5027055;28;20060;-36
2022/02/06 15:24:29;;;;;;;2.15;0.80;;;9.10;99.90;;;;;;5034870;28;20026;-42